Time;durP1;ratioP1;P1;durP2;ratioP2;P2;SDS_P1;SDS_P2;PMS_P1;PMS_P2;Temp;Humidity;BMP_temperature;BMP_pressure;BME280_temperature;BME280_humidity;BME280_pressure;Samples;Min_cycle;Max_cycle;Signal;HPM_P1;HPM_P2
2023/01/18 00:00:59;;;;;;;;;19.75;19.75;;;;;-146.44;100.00;58906.56;5076252;27;45476;-57
2023/01/18 00:03:25;;;;;;;;;23.00;21.75;;;;;-146.44;100.00;58906.56;5076075;27;45534;-55
2023/01/18 00:05:53;;;;;;;;;31.00;28.00;;;;;-146.44;100.00;58906.56;5075037;27;45572;-57
2023/01/18 00:08:18;;;;;;;;;25.50;23.75;;;;;-146.44;100.00;58906.56;5076049;27;47253;-56
2023/01/18 00:10:44;;;;;;;;;25.00;21.25;;;;;-146.44;100.00;58906.56;5075835;27;45420;-57
2023/01/18 00:13:10;;;;;;;;;26.25;22.50;;;;;-146.44;100.00;58906.56;5075810;27;45475;-56
2023/01/18 00:15:36;;;;;;;;;18.25;17.75;;;;;-146.44;100.00;58906.56;5076213;27;45554;-56
2023/01/18 00:18:02;;;;;;;;;27.50;24.00;;;;;-146.44;100.00;58906.56;5074862;27;45925;-57
2023/01/18 00:20:29;;;;;;;;;24.75;22.00;;;;;-146.44;100.00;58906.56;5076041;27;45482;-55
2023/01/18 00:22:55;;;;;;;;;24.25;22.75;;;;;-146.44;100.00;58906.56;5076089;27;46076;-54
2023/01/18 00:25:22;;;;;;;;;26.00;22.75;;;;;-146.44;100.00;58906.56;5075673;27;45504;-56
2023/01/18 00:27:50;;;;;;;;;26.50;25.25;;;;;-146.44;100.00;58906.56;5075874;27;45522;-56
2023/01/18 00:30:17;;;;;;;;;23.00;21.50;;;;;-146.44;100.00;58906.56;5075806;27;45441;-56
2023/01/18 00:32:46;;;;;;;;;22.00;22.00;;;;;-146.44;100.00;58906.56;5075948;27;45499;-56
2023/01/18 00:35:12;;;;;;;;;23.75;19.75;;;;;-146.44;100.00;58906.56;5075603;27;45426;-56
2023/01/18 00:37:38;;;;;;;;;26.00;20.25;;;;;-146.44;100.00;58906.56;5075583;27;46253;-55
2023/01/18 00:40:05;;;;;;;;;28.25;22.25;;;;;-146.44;100.00;58906.56;5064918;27;45470;-57
2023/01/18 00:45:16;;;;;;;;;23.25;20.00;;;;;-146.44;100.00;58906.56;5072448;27;45417;-54
2023/01/18 00:47:41;;;;;;;;;26.00;22.75;;;;;-146.44;100.00;58906.56;5072523;27;46308;-56
2023/01/18 00:50:08;;;;;;;;;25.50;21.50;;;;;-146.44;100.00;58906.56;5074767;27;45490;-54
2023/01/18 00:52:33;;;;;;;;;23.50;20.50;;;;;-146.44;100.00;58906.56;5074734;27;45571;-56
2023/01/18 00:55:00;;;;;;;;;25.75;21.25;;;;;-146.44;100.00;58906.56;5074347;27;45537;-57
2023/01/18 00:57:25;;;;;;;;;23.00;19.50;;;;;-146.44;100.00;58906.56;5073927;27;45808;-56
2023/01/18 00:59:50;;;;;;;;;18.25;16.50;;;;;-146.44;100.00;58906.56;5074222;27;45479;-56
2023/01/18 01:02:16;;;;;;;;;19.75;19.75;;;;;-146.44;100.00;58906.56;5073819;27;50334;-56
2023/01/18 01:07:25;;;;;;;;;24.75;24.75;;;;;-146.44;100.00;58906.56;5074181;28;45479;-56
2023/01/18 01:09:50;;;;;;;;;24.25;20.75;;;;;-146.44;100.00;58906.56;5073163;27;45845;-57
2023/01/18 01:26:06;;;;;;;;;21.75;21.75;;;;;-146.44;100.00;58906.56;5074070;27;45437;-56
2023/01/18 01:28:39;;;;;;;;;22.00;20.50;;;;;-146.44;100.00;58906.56;5073537;27;46231;-55
2023/01/18 01:31:08;;;;;;;;;25.50;21.25;;;;;-146.44;100.00;58906.56;5073744;27;45528;-56
2023/01/18 01:33:34;;;;;;;;;18.00;14.75;;;;;-146.44;100.00;58906.56;5073973;27;45543;-56
2023/01/18 01:36:24;;;;;;;;;25.25;20.50;;;;;-146.44;100.00;58906.56;5072348;27;45667;-56
2023/01/18 01:38:50;;;;;;;;;18.00;16.75;;;;;-146.44;100.00;58906.56;5072878;27;45449;-56
2023/01/18 01:41:24;;;;;;;;;21.75;21.25;;;;;-146.44;100.00;58906.56;5059073;27;45464;-56
2023/01/18 01:44:18;;;;;;;;;20.25;19.25;;;;;-146.44;100.00;58906.56;5073969;27;45425;-56
2023/01/18 01:46:51;;;;;;;;;20.00;18.25;;;;;-146.44;100.00;58906.56;5071010;27;45758;-57
2023/01/18 01:49:19;;;;;;;;;22.75;19.75;;;;;-146.44;100.00;58906.56;5073551;27;46233;-55
2023/01/18 01:51:47;;;;;;;;;22.50;21.50;;;;;-146.44;100.00;58906.56;5073590;27;45469;-55
2023/01/18 01:54:29;;;;;;;;;20.75;20.75;;;;;-146.44;100.00;58906.56;5073464;27;45540;-57
2023/01/18 01:57:03;;;;;;;;;26.50;19.00;;;;;-146.44;100.00;58906.56;5073637;27;45542;-56
2023/01/18 01:59:29;;;;;;;;;22.25;20.75;;;;;-146.44;100.00;58906.56;5073428;27;45557;-57
2023/01/18 02:01:54;;;;;;;;;22.75;22.50;;;;;-146.44;100.00;58906.56;5073477;27;45455;-57
2023/01/18 02:04:19;;;;;;;;;22.00;19.75;;;;;-146.44;100.00;58906.56;5073382;27;45510;-56
2023/01/18 02:06:45;;;;;;;;;22.25;21.75;;;;;-146.44;100.00;58906.56;5073008;27;45505;-55
2023/01/18 02:09:14;;;;;;;;;16.75;16.25;;;;;-146.44;100.00;58906.56;5072341;27;49445;-57
2023/01/18 02:11:41;;;;;;;;;20.75;20.75;;;;;-146.44;100.00;58906.56;5073218;27;45440;-57
2023/01/18 02:14:12;;;;;;;;;21.50;18.75;;;;;-146.44;100.00;58906.56;5073331;27;45586;-55
2023/01/18 02:17:07;;;;;;;;;21.50;18.75;;;;;-146.44;100.00;58906.56;5073078;27;46077;-56
2023/01/18 02:20:06;;;;;;;;;24.25;21.25;;;;;-146.44;100.00;58906.56;5073029;27;46447;-56
2023/01/18 02:22:47;;;;;;;;;16.00;16.00;;;;;-146.44;100.00;58906.56;5071853;27;45557;-57
2023/01/18 02:25:49;;;;;;;;;18.25;18.25;;;;;-146.44;100.00;58906.56;5073069;27;45464;-57
2023/01/18 02:28:21;;;;;;;;;17.25;16.25;;;;;-146.44;100.00;58906.56;5073053;28;45515;-57
2023/01/18 02:31:02;;;;;;;;;15.00;14.50;;;;;-146.44;100.00;58906.56;5072846;28;47212;-56
2023/01/18 02:33:34;;;;;;;;;16.00;13.50;;;;;-146.44;100.00;58906.56;5072814;27;45494;-55
2023/01/18 02:36:01;;;;;;;;;15.50;13.25;;;;;-146.44;100.00;58906.56;5073141;27;45434;-56
2023/01/18 02:38:37;;;;;;;;;12.00;12.00;;;;;-146.44;100.00;58906.56;5072059;27;45536;-57
2023/01/18 02:41:20;;;;;;;;;14.00;12.75;;;;;-146.44;100.00;58906.56;5059332;27;45489;-54
2023/01/18 02:46:38;;;;;;;;;12.00;11.00;;;;;-146.44;100.00;58906.56;5076583;27;45538;-55
2023/01/18 02:49:17;;;;;;;;;12.75;12.75;;;;;-146.44;100.00;58906.56;5074709;27;45516;-57
2023/01/18 02:51:42;;;;;;;;;11.25;11.25;;;;;-146.44;100.00;58906.56;5063621;27;46553;-57
2023/01/18 02:54:10;;;;;;;;;11.00;10.25;;;;;-146.44;100.00;58906.56;5076330;27;45496;-56
2023/01/18 02:56:44;;;;;;;;;12.75;10.75;;;;;-146.44;100.00;58906.56;5076369;27;45452;-56
2023/01/18 02:59:20;;;;;;;;;7.50;7.50;;;;;-146.44;100.00;58906.56;5076569;27;45502;-54
2023/01/18 03:01:58;;;;;;;;;8.25;8.25;;;;;-146.44;100.00;58906.56;5076049;27;46452;-56
2023/01/18 03:04:33;;;;;;;;;10.50;10.50;;;;;-146.44;100.00;58906.56;5074870;27;45544;-56
2023/01/18 03:07:12;;;;;;;;;11.00;10.25;;;;;-146.44;100.00;58906.56;5076440;27;45530;-56
2023/01/18 03:09:41;;;;;;;;;9.50;9.50;;;;;-146.44;100.00;58906.56;5076074;27;45571;-56
2023/01/18 03:12:45;;;;;;;;;12.25;10.50;;;;;-146.44;100.00;58906.56;5075990;27;46138;-55
2023/01/18 03:15:45;;;;;;;;;12.25;11.00;;;;;-146.44;100.00;58906.56;5053739;27;45625;-56
2023/01/18 03:18:30;;;;;;;;;12.75;12.75;;;;;-146.44;100.00;58906.56;5058298;28;45562;-57
2023/01/18 03:20:56;;;;;;;;;9.25;9.25;;;;;-146.44;100.00;58906.56;5063270;27;45513;-55
2023/01/18 03:23:40;;;;;;;;;14.00;11.00;;;;;-146.44;100.00;58906.56;5067460;27;45482;-57
2023/01/18 03:26:08;;;;;;;;;12.00;12.00;;;;;-146.44;100.00;58906.56;5070698;27;45536;-57
2023/01/18 03:34:51;;;;;;;;;11.50;8.75;;;;;-146.44;100.00;58906.56;5068977;27;45469;-56
2023/01/18 03:37:38;;;;;;;;;9.50;8.50;;;;;-146.44;100.00;58906.56;5064190;28;45556;-56
2023/01/18 03:40:15;;;;;;;;;10.00;10.00;;;;;-146.44;100.00;58906.56;5075510;27;45502;-56
2023/01/18 03:42:52;;;;;;;;;10.50;10.00;;;;;-146.44;100.00;58906.56;5075821;27;45824;-57
2023/01/18 03:45:26;;;;;;;;;13.25;10.25;;;;;-146.44;100.00;58906.56;5075451;27;46263;-57
2023/01/18 03:47:52;;;;;;;;;13.00;11.75;;;;;-146.44;100.00;58906.56;5075204;27;45451;-55
2023/01/18 03:50:23;;;;;;;;;7.00;7.00;;;;;-146.44;100.00;58906.56;5060226;27;45475;-55
2023/01/18 03:52:53;;;;;;;;;16.00;14.50;;;;;-146.44;100.00;58906.56;5074407;27;45582;-56
2023/01/18 03:55:39;;;;;;;;;17.75;17.75;;;;;-146.44;100.00;58906.56;5075092;27;45551;-57
2023/01/18 03:58:11;;;;;;;;;20.00;19.25;;;;;-146.44;100.00;58906.56;5075451;27;45511;-57
2023/01/18 04:00:38;;;;;;;;;18.25;18.25;;;;;-146.44;100.00;58906.56;5075210;27;45453;-57
2023/01/18 04:03:04;;;;;;;;;16.50;16.50;;;;;-146.44;100.00;58906.56;5075423;27;45635;-57
2023/01/18 04:05:30;;;;;;;;;18.50;18.50;;;;;-146.44;100.00;58906.56;5074824;27;46295;-56
2023/01/18 04:07:56;;;;;;;;;20.50;20.00;;;;;-146.44;100.00;58906.56;5075087;27;45460;-57
2023/01/18 04:10:21;;;;;;;;;20.00;18.75;;;;;-146.44;100.00;58906.56;5074988;27;45491;-55
2023/01/18 04:12:46;;;;;;;;;22.25;18.75;;;;;-146.44;100.00;58906.56;5075256;27;45579;-56
2023/01/18 04:15:12;;;;;;;;;20.75;19.75;;;;;-146.44;100.00;58906.56;5074947;27;46092;-57
2023/01/18 04:17:38;;;;;;;;;20.00;19.50;;;;;-146.44;100.00;58906.56;5074978;27;45640;-57
2023/01/18 04:20:04;;;;;;;;;18.00;18.00;;;;;-146.44;100.00;58906.56;5073661;27;45504;-56
2023/01/18 04:22:29;;;;;;;;;22.75;16.75;;;;;-146.44;100.00;58906.56;5073263;27;45626;-57
2023/01/18 04:24:55;;;;;;;;;21.75;19.00;;;;;-146.44;100.00;58906.56;5062160;28;46105;-56
2023/01/18 04:27:20;;;;;;;;;18.25;16.00;;;;;-146.44;100.00;58906.56;5074381;27;45510;-55
2023/01/18 04:29:45;;;;;;;;;21.00;19.25;;;;;-146.44;100.00;58906.56;5074899;27;45525;-55
2023/01/18 04:32:11;;;;;;;;;20.50;19.25;;;;;-146.44;100.00;58906.56;5074791;27;45726;-55
2023/01/18 04:34:36;;;;;;;;;21.75;20.00;;;;;-146.44;100.00;58906.56;5074490;27;48355;-56
2023/01/18 04:37:01;;;;;;;;;19.75;19.75;;;;;-146.44;100.00;58906.56;5074753;27;45485;-56
2023/01/18 04:39:27;;;;;;;;;21.75;18.00;;;;;-146.44;100.00;58906.56;5074781;27;45508;-56
2023/01/18 04:41:52;;;;;;;;;16.25;16.00;;;;;-146.44;100.00;58906.56;5073847;27;45637;-55
2023/01/18 04:44:18;;;;;;;;;20.50;17.75;;;;;-146.44;100.00;58906.56;5074540;27;46113;-57
2023/01/18 04:46:43;;;;;;;;;12.75;10.75;;;;;-146.44;100.00;58906.56;5074458;27;45481;-56
2023/01/18 04:49:12;;;;;;;;;21.50;20.50;;;;;-146.44;100.00;58906.56;5074542;27;45494;-57
2023/01/18 04:51:38;;;;;;;;;21.75;15.75;;;;;-146.44;100.00;58906.56;5074504;27;45461;-55
2023/01/18 04:54:03;;;;;;;;;17.50;15.50;;;;;-146.44;100.00;58906.56;5074523;27;46439;-57
2023/01/18 04:56:29;;;;;;;;;19.75;18.00;;;;;-146.44;100.00;58906.56;5074237;27;45437;-57
2023/01/18 04:58:54;;;;;;;;;20.00;16.00;;;;;-146.44;100.00;58906.56;5074585;27;45632;-57
2023/01/18 05:01:20;;;;;;;;;17.75;15.50;;;;;-146.44;100.00;58906.56;5074257;27;45603;-57
2023/01/18 05:03:46;;;;;;;;;15.75;15.25;;;;;-146.44;100.00;58906.56;5073518;27;45507;-57
2023/01/18 05:06:13;;;;;;;;;17.00;15.50;;;;;-146.44;100.00;58906.56;5074371;27;45770;-57
2023/01/18 05:08:42;;;;;;;;;19.25;19.00;;;;;-146.44;100.00;58906.56;5074176;28;45464;-57
2023/01/18 05:11:10;;;;;;;;;24.00;17.25;;;;;-146.44;100.00;58906.56;5073725;27;45652;-56
2023/01/18 05:13:36;;;;;;;;;21.25;18.75;;;;;-146.44;100.00;58906.56;5069221;27;45520;-56
2023/01/18 05:16:02;;;;;;;;;16.50;16.50;;;;;-146.44;100.00;58906.56;5073886;27;45495;-55
2023/01/18 05:18:28;;;;;;;;;21.00;19.50;;;;;-146.44;100.00;58906.56;5074084;27;45520;-57
2023/01/18 05:20:54;;;;;;;;;17.25;16.00;;;;;-146.44;100.00;58906.56;5074121;27;45621;-57
2023/01/18 05:23:20;;;;;;;;;20.00;15.75;;;;;-146.44;100.00;58906.56;5065504;27;46279;-56
2023/01/18 05:25:45;;;;;;;;;18.00;17.25;;;;;-146.44;100.00;58906.56;5066697;27;45472;-57
2023/01/18 05:28:10;;;;;;;;;18.25;15.50;;;;;-146.44;100.00;58906.56;5074165;27;45572;-55
2023/01/18 05:30:41;;;;;;;;;19.75;17.25;;;;;-146.44;100.00;58906.56;5074115;27;45505;-56
2023/01/18 05:33:08;;;;;;;;;15.00;15.00;;;;;-146.44;100.00;58906.56;5073706;27;45963;-56
2023/01/18 05:35:34;;;;;;;;;19.75;17.25;;;;;-146.44;100.00;58906.56;5072678;27;45534;-57
2023/01/18 05:37:59;;;;;;;;;27.75;20.50;;;;;-146.44;100.00;58906.56;5072428;28;45509;-56
2023/01/18 05:40:25;;;;;;;;;18.75;17.00;;;;;-146.44;100.00;58906.56;5073921;27;45542;-57
2023/01/18 05:42:50;;;;;;;;;17.75;16.75;;;;;-146.44;100.00;58906.56;5073456;27;45559;-56
2023/01/18 05:45:16;;;;;;;;;23.75;17.75;;;;;-146.44;100.00;58906.56;5073311;27;52816;-57
2023/01/18 05:47:41;;;;;;;;;17.75;16.75;;;;;-146.44;100.00;58906.56;5073968;27;45533;-56
2023/01/18 05:50:07;;;;;;;;;16.75;15.50;;;;;-146.44;100.00;58906.56;5073588;27;45649;-55
2023/01/18 05:52:33;;;;;;;;;17.00;15.50;;;;;-146.44;100.00;58906.56;5071426;27;45545;-55
2023/01/18 05:54:59;;;;;;;;;14.75;14.75;;;;;-146.44;100.00;58906.56;5073415;27;45556;-56
2023/01/18 05:57:25;;;;;;;;;18.25;17.00;;;;;-146.44;100.00;58906.56;5073796;27;45461;-56
2023/01/18 05:59:51;;;;;;;;;17.00;15.75;;;;;-146.44;100.00;58906.56;5073393;27;45728;-57
2023/01/18 06:02:17;;;;;;;;;15.50;13.50;;;;;-146.44;100.00;58906.56;5073355;27;46386;-57
2023/01/18 06:04:43;;;;;;;;;14.00;14.00;;;;;-146.44;100.00;58906.56;5071955;27;45549;-57
2023/01/18 06:07:09;;;;;;;;;16.25;12.50;;;;;-146.44;100.00;58906.56;5073367;27;45542;-53
2023/01/18 06:09:34;;;;;;;;;16.00;12.25;;;;;-146.44;100.00;58906.56;5073437;27;45493;-57
2023/01/18 06:11:59;;;;;;;;;18.75;16.00;;;;;-146.44;100.00;58906.56;5072321;27;51169;-56
2023/01/18 06:14:25;;;;;;;;;16.00;14.50;;;;;-146.44;100.00;58906.56;5073224;27;45411;-56
2023/01/18 06:16:50;;;;;;;;;17.25;16.25;;;;;-146.44;100.00;58906.56;5071632;27;45602;-57
2023/01/18 06:19:16;;;;;;;;;17.00;17.00;;;;;-146.44;100.00;58906.56;5073094;27;45540;-57
2023/01/18 06:21:42;;;;;;;;;17.00;16.25;;;;;-146.44;100.00;58906.56;5072890;27;45699;-54
2023/01/18 06:24:07;;;;;;;;;15.00;15.00;;;;;-146.44;100.00;58906.56;5058359;27;45559;-57
2023/01/18 06:26:33;;;;;;;;;19.00;16.75;;;;;-146.44;100.00;58906.56;5073074;27;45497;-56
2023/01/18 06:28:58;;;;;;;;;17.00;16.50;;;;;-146.44;100.00;58906.56;5073289;27;45509;-57
2023/01/18 06:31:23;;;;;;;;;16.50;15.50;;;;;-146.44;100.00;58906.56;5072679;27;45536;-57
2023/01/18 06:33:49;;;;;;;;;17.75;15.00;;;;;-146.44;100.00;58906.56;5072031;27;45603;-57
2023/01/18 06:36:14;;;;;;;;;19.75;16.00;;;;;-146.44;100.00;58906.56;5072172;27;45627;-53
2023/01/18 06:38:40;;;;;;;;;15.50;13.75;;;;;-146.44;100.00;58906.56;5072983;27;45472;-56
2023/01/18 06:41:06;;;;;;;;;17.25;16.00;;;;;-146.44;100.00;58906.56;5072621;27;45536;-59
2023/01/18 06:43:31;;;;;;;;;15.25;15.00;;;;;-146.44;100.00;58906.56;5072748;27;45470;-55
2023/01/18 06:45:57;;;;;;;;;19.00;15.25;;;;;-146.44;100.00;58906.56;5073020;27;45590;-55
2023/01/18 06:48:23;;;;;;;;;17.75;14.50;;;;;-146.44;100.00;58906.56;5072582;27;45445;-55
2023/01/18 06:50:53;;;;;;;;;16.25;15.25;;;;;-146.44;100.00;58906.56;5072614;27;46066;-56
2023/01/18 06:53:19;;;;;;;;;15.50;14.00;;;;;-146.44;100.00;58906.56;5072535;27;45502;-50
2023/01/18 06:55:52;;;;;;;;;21.00;19.25;;;;;-146.44;100.00;58906.56;5072118;27;45479;-60
2023/01/18 06:58:17;;;;;;;;;17.00;17.00;;;;;-146.44;100.00;58906.56;5072633;27;45490;-57
2023/01/18 07:00:43;;;;;;;;;14.00;14.00;;;;;-146.44;100.00;58906.56;5072450;27;45499;-53
2023/01/18 07:03:09;;;;;;;;;17.25;17.25;;;;;-146.44;100.00;58906.56;5072388;27;45500;-56
2023/01/18 07:05:34;;;;;;;;;20.50;19.00;;;;;-146.44;100.00;58906.56;5071026;27;45410;-55
2023/01/18 07:08:00;;;;;;;;;19.25;18.75;;;;;-146.44;100.00;58906.56;5069424;27;45667;-53
2023/01/18 07:10:25;;;;;;;;;20.25;16.50;;;;;-146.44;100.00;58906.56;5072247;27;46586;-56
2023/01/18 07:12:50;;;;;;;;;24.00;19.25;;;;;-146.44;100.00;58906.56;5072601;27;45469;-57
2023/01/18 07:15:16;;;;;;;;;19.25;19.25;;;;;-146.44;100.00;58906.56;5072298;27;45426;-57
2023/01/18 07:17:43;;;;;;;;;20.50;19.00;;;;;-146.44;100.00;58906.56;5072265;27;45512;-56
2023/01/18 07:20:10;;;;;;;;;26.25;23.00;;;;;-146.44;100.00;58906.56;5072185;27;45530;-55
2023/01/18 07:22:35;;;;;;;;;24.50;23.25;;;;;-146.44;100.00;58906.56;5069930;27;45556;-55
2023/01/18 07:25:00;;;;;;;;;22.25;20.25;;;;;-146.44;100.00;58906.56;5060167;28;45573;-54
2023/01/18 07:27:26;;;;;;;;;23.50;22.00;;;;;-146.44;100.00;58906.56;5073792;27;45628;-55
2023/01/18 07:29:51;;;;;;;;;23.75;21.75;;;;;-146.44;100.00;58906.56;5075623;27;45494;-55
2023/01/18 07:32:16;;;;;;;;;29.75;23.00;;;;;-146.44;100.00;58906.56;5075560;27;45556;-57
2023/01/18 07:34:41;;;;;;;;;26.00;22.75;;;;;-146.44;100.00;58906.56;5074864;27;45463;-53
2023/01/18 07:37:07;;;;;;;;;27.50;26.50;;;;;-146.44;100.00;58906.56;5075533;27;45522;-54
2023/01/18 07:39:32;;;;;;;;;25.00;25.00;;;;;-146.44;100.00;58906.56;5075424;27;46034;-53
2023/01/18 07:41:57;;;;;;;;;26.00;25.00;;;;;-146.44;100.00;58906.56;5074183;27;45370;-50
2023/01/18 07:44:23;;;;;;;;;26.00;24.00;;;;;-146.44;100.00;58906.56;5075349;27;45526;-54
2023/01/18 07:46:48;;;;;;;;;27.50;26.50;;;;;-146.44;100.00;58906.56;5075312;27;45773;-55
2023/01/18 07:49:14;;;;;;;;;29.00;27.00;;;;;-146.44;100.00;58906.56;5075187;27;46156;-56
2023/01/18 07:51:40;;;;;;;;;27.75;24.00;;;;;-146.44;100.00;58906.56;5075096;27;46106;-57
2023/01/18 07:54:05;;;;;;;;;23.00;21.25;;;;;-146.44;100.00;58906.56;5075224;27;45539;-56
2023/01/18 07:56:31;;;;;;;;;27.50;25.25;;;;;-146.44;100.00;58906.56;5073447;27;45509;-54
2023/01/18 07:58:56;;;;;;;;;29.50;25.50;;;;;-146.44;100.00;58906.56;5075079;27;45945;-53
2023/01/18 08:01:22;;;;;;;;;28.00;26.00;;;;;-146.44;100.00;58906.56;5074884;27;46137;-65
2023/01/18 08:03:49;;;;;;;;;32.25;24.75;;;;;-146.44;100.00;58906.56;5073885;27;45528;-60
2023/01/18 08:06:18;;;;;;;;;27.50;21.25;;;;;-146.44;100.00;58906.56;5075423;27;45437;-55
2023/01/18 08:08:43;;;;;;;;;28.25;26.00;;;;;-146.44;100.00;58906.56;5074957;27;46846;-56
2023/01/18 08:11:10;;;;;;;;;23.50;21.75;;;;;-146.44;100.00;58906.56;5074870;27;45468;-55
2023/01/18 08:13:35;;;;;;;;;27.25;25.25;;;;;-146.44;100.00;58906.56;5075166;27;45569;-55
2023/01/18 08:16:03;;;;;;;;;29.75;28.25;;;;;-146.44;100.00;58906.56;5075034;27;45449;-56
2023/01/18 08:18:29;;;;;;;;;32.00;24.50;;;;;-146.44;100.00;58906.56;5073706;27;45597;-55
2023/01/18 08:20:54;;;;;;;;;28.50;25.25;;;;;-146.44;100.00;58906.56;5074791;27;45633;-56
2023/01/18 08:23:20;;;;;;;;;30.75;28.50;;;;;-146.44;100.00;58906.56;5066493;27;45646;-56
2023/01/18 08:25:46;;;;;;;;;28.75;27.50;;;;;-146.44;100.00;58906.56;5069200;27;45543;-54
2023/01/18 08:28:12;;;;;;;;;34.75;30.75;;;;;-146.44;100.00;58906.56;5074692;28;46186;-59
2023/01/18 08:30:42;;;;;;;;;31.50;28.75;;;;;-146.44;100.00;58906.56;5074761;27;45449;-57
2023/01/18 08:33:08;;;;;;;;;29.00;25.00;;;;;-146.44;100.00;58906.56;5073751;27;45508;-57
2023/01/18 08:35:42;;;;;;;;;25.50;23.00;;;;;-146.44;100.00;58906.56;5075040;27;45560;-57
2023/01/18 08:38:08;;;;;;;;;28.25;28.25;;;;;-146.44;100.00;58906.56;5073716;27;46541;-58
2023/01/18 08:40:34;;;;;;;;;27.75;26.00;;;;;-146.44;100.00;58906.56;5074254;27;45631;-57
2023/01/18 08:43:01;;;;;;;;;43.00;39.00;;;;;-146.44;100.00;58906.56;5074002;27;45455;-56
2023/01/18 08:45:28;;;;;;;;;40.50;33.75;;;;;-146.44;100.00;58906.56;5074734;27;45451;-57
2023/01/18 08:48:01;;;;;;;;;27.00;25.25;;;;;-146.44;100.00;58906.56;5074238;27;46200;-55
2023/01/18 08:50:29;;;;;;;;;26.75;26.75;;;;;-146.44;100.00;58906.56;5074445;27;45492;-56
2023/01/18 08:52:54;;;;;;;;;34.00;32.00;;;;;-146.44;100.00;58906.56;5074425;27;45816;-58
2023/01/18 08:55:21;;;;;;;;;38.50;36.50;;;;;-146.44;100.00;58906.56;5074084;27;45626;-57
2023/01/18 08:57:48;;;;;;;;;28.50;25.25;;;;;-146.44;100.00;58906.56;5074359;27;45883;-56
2023/01/18 09:00:14;;;;;;;;;26.00;24.75;;;;;-146.44;100.00;58906.56;5073815;27;45543;-54
2023/01/18 09:02:39;;;;;;;;;24.50;24.50;;;;;-146.44;100.00;58906.56;5073279;27;45512;-54
2023/01/18 09:05:05;;;;;;;;;20.75;17.00;;;;;-146.44;100.00;58906.56;5073395;27;47573;-55
2023/01/18 09:07:30;;;;;;;;;29.25;26.00;;;;;-146.44;100.00;58906.56;5074013;27;46618;-55
2023/01/18 09:09:56;;;;;;;;;36.50;27.25;;;;;-146.44;100.00;58906.56;5074108;27;45616;-57
2023/01/18 09:12:21;;;;;;;;;29.25;28.50;;;;;-146.44;100.00;58906.56;5059751;28;45521;-57
2023/01/18 09:14:47;;;;;;;;;24.25;22.00;;;;;-146.44;100.00;58906.56;5074192;27;45598;-55
2023/01/18 09:17:13;;;;;;;;;29.00;23.00;;;;;-146.44;100.00;58906.56;5073594;27;45516;-57
2023/01/18 09:19:39;;;;;;;;;31.00;26.50;;;;;-146.44;100.00;58906.56;5073837;27;45507;-55
2023/01/18 09:22:05;;;;;;;;;28.25;24.75;;;;;-146.44;100.00;58906.56;5073802;27;45473;-56
2023/01/18 09:24:30;;;;;;;;;32.25;31.00;;;;;-146.44;100.00;58906.56;5059492;27;45549;-56
2023/01/18 09:26:55;;;;;;;;;24.25;24.25;;;;;-146.44;100.00;58906.56;5073659;27;46062;-57
2023/01/18 09:29:21;;;;;;;;;32.25;27.25;;;;;-146.44;100.00;58906.56;5073894;27;45464;-55
2023/01/18 09:31:47;;;;;;;;;27.75;26.00;;;;;-146.44;100.00;58906.56;5073900;27;45643;-56
2023/01/18 09:34:13;;;;;;;;;36.75;30.00;;;;;-146.44;100.00;58906.56;5072704;27;45548;-54
2023/01/18 09:36:39;;;;;;;;;31.50;25.25;;;;;-146.44;100.00;58906.56;5073353;27;46157;-56
2023/01/18 09:39:05;;;;;;;;;22.25;20.50;;;;;-146.44;100.00;58906.56;5073689;27;45565;-57
2023/01/18 09:41:41;;;;;;;;;26.75;25.50;;;;;-146.44;100.00;58906.56;5073519;27;45430;-55
2023/01/18 09:44:21;;;;;;;;;27.75;24.50;;;;;-146.44;100.00;58906.56;5073654;28;45436;-52
2023/01/18 09:46:52;;;;;;;;;27.25;26.25;;;;;-146.44;100.00;58906.56;5073370;27;46042;-57
2023/01/18 09:49:24;;;;;;;;;25.50;20.75;;;;;-146.44;100.00;58906.56;5073618;27;45429;-55
2023/01/18 09:52:04;;;;;;;;;23.25;20.50;;;;;-146.44;100.00;58906.56;5073460;27;45589;-55
2023/01/18 09:54:51;;;;;;;;;16.50;13.75;;;;;-146.44;100.00;58906.56;5073571;27;45422;-56
2023/01/18 09:57:43;;;;;;;;;20.75;20.75;;;;;-146.44;100.00;58906.56;5061021;28;46259;-54
2023/01/18 10:00:23;;;;;;;;;20.50;19.25;;;;;-146.44;100.00;58906.56;5073274;27;45438;-53
2023/01/18 10:02:52;;;;;;;;;23.75;22.75;;;;;-146.44;100.00;58906.56;5072320;27;45488;-56
2023/01/18 10:05:24;;;;;;;;;20.00;16.00;;;;;-146.44;100.00;58906.56;5073071;27;45607;-56
2023/01/18 10:08:06;;;;;;;;;20.50;16.00;;;;;-146.44;100.00;58906.56;5073023;27;46062;-54
2023/01/18 10:10:50;;;;;;;;;23.00;15.75;;;;;-146.44;100.00;58906.56;5073112;27;45500;-55
2023/01/18 10:13:37;;;;;;;;;20.50;17.00;;;;;-146.44;100.00;58906.56;5073364;27;45595;-54
2023/01/18 10:16:05;;;;;;;;;18.00;15.00;;;;;-146.44;100.00;58906.56;5061428;28;46790;-57
2023/01/18 10:18:31;;;;;;;;;19.25;17.25;;;;;-146.44;100.00;58906.56;5072547;27;45497;-54
2023/01/18 10:21:03;;;;;;;;;19.00;18.00;;;;;-146.44;100.00;58906.56;5072957;27;52530;-55
2023/01/18 10:23:59;;;;;;;;;19.75;19.25;;;;;-146.44;100.00;58906.56;5063516;28;45635;-55
2023/01/18 10:26:29;;;;;;;;;15.25;15.25;;;;;-146.44;100.00;58906.56;5072636;27;45595;-56
2023/01/18 10:29:00;;;;;;;;;16.75;16.75;;;;;-146.44;100.00;58906.56;5072950;27;45496;-54
2023/01/18 10:31:56;;;;;;;;;15.75;13.75;;;;;-146.44;100.00;58906.56;5072693;27;45548;-54
2023/01/18 10:34:28;;;;;;;;;16.00;12.00;;;;;-146.44;100.00;58906.56;5071676;27;45577;-56
2023/01/18 10:37:00;;;;;;;;;16.75;15.50;;;;;-146.44;100.00;58906.56;5072463;27;45575;-57
2023/01/18 10:39:38;;;;;;;;;17.00;16.50;;;;;-146.44;100.00;58906.56;5072387;27;47112;-57
2023/01/18 10:42:16;;;;;;;;;15.00;12.50;;;;;-146.44;100.00;58906.56;5072455;27;46133;-56
2023/01/18 10:44:41;;;;;;;;;13.75;12.00;;;;;-146.44;100.00;58906.56;5072622;27;45643;-54
2023/01/18 10:47:07;;;;;;;;;13.75;13.25;;;;;-146.44;100.00;58906.56;5072666;27;45510;-54
2023/01/18 10:49:39;;;;;;;;;13.50;13.50;;;;;-146.44;100.00;58906.56;5072667;27;46135;-54
2023/01/18 10:52:29;;;;;;;;;13.50;13.50;;;;;-146.44;100.00;58906.56;5071080;27;45499;-53
2023/01/18 10:55:00;;;;;;;;;12.50;12.50;;;;;-146.44;100.00;58906.56;5062353;27;45505;-54
2023/01/18 10:57:33;;;;;;;;;13.75;12.50;;;;;-146.44;100.00;58906.56;5072639;27;45596;-55
2023/01/18 10:59:58;;;;;;;;;12.25;11.25;;;;;-146.44;100.00;58906.56;5071559;27;45588;-56
2023/01/18 11:02:29;;;;;;;;;12.75;12.75;;;;;-146.44;100.00;58906.56;5073975;27;45566;-55
2023/01/18 11:05:20;;;;;;;;;8.00;8.00;;;;;-146.44;100.00;58906.56;5076124;27;45547;-56
2023/01/18 11:07:45;;;;;;;;;12.25;8.00;;;;;-146.44;100.00;58906.56;5076083;27;45722;-54
2023/01/18 11:10:26;;;;;;;;;8.25;8.25;;;;;-146.44;100.00;58906.56;5075808;27;46261;-55
2023/01/18 11:12:53;;;;;;;;;7.75;7.00;;;;;-146.44;100.00;58906.56;5074092;27;45511;-57
2023/01/18 11:15:18;;;;;;;;;8.50;8.50;;;;;-146.44;100.00;58906.56;5075648;27;45481;-55
2023/01/18 11:17:54;;;;;;;;;11.50;10.75;;;;;-146.44;100.00;58906.56;5075985;27;45524;-52
2023/01/18 11:20:24;;;;;;;;;8.25;8.25;;;;;-146.44;100.00;58906.56;5074053;27;45438;-55
2023/01/18 11:22:55;;;;;;;;;10.50;10.50;;;;;-146.44;100.00;58906.56;5071530;27;45578;-55
2023/01/18 11:25:21;;;;;;;;;10.75;8.25;;;;;-146.44;100.00;58906.56;5066409;27;45590;-56
2023/01/18 11:27:48;;;;;;;;;10.25;9.50;;;;;-146.44;100.00;58906.56;5075781;27;45595;-55
2023/01/18 11:30:22;;;;;;;;;7.00;7.00;;;;;-146.44;100.00;58906.56;5075526;27;46183;-56
2023/01/18 11:32:50;;;;;;;;;7.75;6.00;;;;;-146.44;100.00;58906.56;5072866;27;45528;-57